עמוד ראשי
METAR-TAF:

METAR-TAF

שדות תעופה :

Río Grande, ארגנטינה

קו רוחב: 53-48S, קו אורך: 067-45W, גובה: 13מטר

METAR: חסר

זמן: 00:34 (03:34 UTC)

תחזית

הדו"ח נערך לפני 4 שעות ו 34דקות, בשעה 23:00 UTC
תחזית בתוקף מ 20 ב 00 UTC עד 20 ב 24 UTC
רוח 10קשר מכיוון דרום-מערב
ראות 10 קילומטר או יותר
מעונן בגובה 3500רגל

TAF: SAWE 192300Z 2000/2024 23010KT 9999 OVC035 TXM02/2018Z TNM13/2012Z

תצפיות ותחזיות מזג אוויר לגבי יותר מ- 4,000 שדות תעופה ברחבי העולם. דוחות METAR ו- TAF.

התחנות הזמינות מסומנות בנקודות צהובות ואדומות על גבי המפה.

העבר את העכבר לנקודה הצבעונית על מנת לראות את שם התחנה.

לאחר מכן, לחץ כדי לראות את תוכן ואת תחזיות מזג האוויר.

כדי לשנות את המפה: לחץ על הכפתורים הירוקים עם הפלוס השחור כדי להתקרב; על הכפתור הירוק עם המקף כדי להתרחק; או בחיצים הירוקים למפות סמוכות.


METAR-TAF: